Weather at Fulton County Airport Brown Field

Public forecast

Using degrees Fahrenheit for public forecast. Weather courtesy of forecast.io.

Current aviation weather report (METAR) for Fulton County Airport Brown Field

Retrieved 2020/09/23 20:53 UTC (46 minutes ago):

KFTY 232053Z 00000KT 10SM FEW100 23/11 A3003 RMK AO2 SLP163 T02330106 56015

Aviation forecast (TAF) for Fulton County Airport Brown Field

Retrieved 2020/09/23 18:27 UTC (3 hours ago):

TAF KFTY 231725Z 2318/2418 26004KT P6SM SCT040 BKN100 FM232300 VRB03KT P6SM FEW045 BKN100 FM241100 09004KT P6SM OVC100 PROB30 2411/2417 4SM -SHRA BR OVC025 FM241700 11007KT P6SM OVC030 PROB30 2417/2418 4SM -SHRA BR OVC015